sensor_id;sensor_type;location;lat;lon;timestamp;pressure;altitude;pressure_sealevel;temperature;humidity
4576;BME280;2300;51.874;8.430;2023-05-29T00:02:21;101265.78;;;12.53;84.32
4576;BME280;2300;51.874;8.430;2023-05-29T00:04:47;101270.81;;;12.56;84.29
4576;BME280;2300;51.874;8.430;2023-05-29T00:07:16;101279.16;;;12.49;84.65
4576;BME280;2300;51.874;8.430;2023-05-29T00:09:44;101277.84;;;12.52;84.12
4576;BME280;2300;51.874;8.430;2023-05-29T00:12:10;101279.84;;;12.45;84.60
4576;BME280;2300;51.874;8.430;2023-05-29T00:14:37;101287.59;;;12.36;85.06
4576;BME280;2300;51.874;8.430;2023-05-29T00:17:04;101229.69;;;11.88;84.33
4576;BME280;2300;51.874;8.430;2023-05-29T00:19:31;101288.25;;;12.13;84.91
4576;BME280;2300;51.874;8.430;2023-05-29T00:21:57;101283.22;;;12.10;84.77
4576;BME280;2300;51.874;8.430;2023-05-29T00:24:24;101289.84;;;11.85;85.55
4576;BME280;2300;51.874;8.430;2023-05-29T00:26:52;101285.50;;;11.95;84.78
4576;BME280;2300;51.874;8.430;2023-05-29T00:29:18;101302.38;;;11.81;84.56
4576;BME280;2300;51.874;8.430;2023-05-29T00:31:46;101259.16;;;11.63;84.67
4576;BME280;2300;51.874;8.430;2023-05-29T00:34:12;101289.53;;;11.75;84.83
4576;BME280;2300;51.874;8.430;2023-05-29T00:36:39;101303.06;;;11.76;84.53
4576;BME280;2300;51.874;8.430;2023-05-29T00:39:05;101301.75;;;11.79;84.71
4576;BME280;2300;51.874;8.430;2023-05-29T00:41:32;101304.66;;;11.59;84.80
4576;BME280;2300;51.874;8.430;2023-05-29T00:44:00;101298.94;;;11.60;84.43
4576;BME280;2300;51.874;8.430;2023-05-29T00:46:26;101306.53;;;11.65;83.83
4576;BME280;2300;51.874;8.430;2023-05-29T00:48:53;101312.28;;;11.57;83.72
4576;BME280;2300;51.874;8.430;2023-05-29T00:51:20;101317.69;;;11.45;83.63
4576;BME280;2300;51.874;8.430;2023-05-29T00:53:48;101315.09;;;11.50;83.08
4576;BME280;2300;51.874;8.430;2023-05-29T00:56:16;101310.44;;;11.19;83.17
4576;BME280;2300;51.874;8.430;2023-05-29T00:58:43;101307.50;;;11.14;83.23
4576;BME280;2300;51.874;8.430;2023-05-29T01:01:12;101311.72;;;11.17;82.71
4576;BME280;2300;51.874;8.430;2023-05-29T01:03:39;101319.94;;;11.23;82.80
4576;BME280;2300;51.874;8.430;2023-05-29T01:06:06;101313.81;;;11.21;83.11
4576;BME280;2300;51.874;8.430;2023-05-29T01:08:33;101321.41;;;11.19;83.27
4576;BME280;2300;51.874;8.430;2023-05-29T01:11:05;101266.72;;;10.80;82.93
4576;BME280;2300;51.874;8.430;2023-05-29T01:13:35;101331.69;;;10.99;83.30
4576;BME280;2300;51.874;8.430;2023-05-29T01:16:08;101319.38;;;10.77;83.65
4576;BME280;2300;51.874;8.430;2023-05-29T01:18:41;101288.22;;;10.52;83.89
4576;BME280;2300;51.874;8.430;2023-05-29T01:21:22;101326.09;;;10.81;83.59
4576;BME280;2300;51.874;8.430;2023-05-29T01:23:56;101337.50;;;10.78;83.71
4576;BME280;2300;51.874;8.430;2023-05-29T01:26:43;101334.16;;;10.76;83.21
4576;BME280;2300;51.874;8.430;2023-05-29T01:29:14;101336.47;;;10.79;83.78
4576;BME280;2300;51.874;8.430;2023-05-29T01:31:42;101333.59;;;10.54;83.98
4576;BME280;2300;51.874;8.430;2023-05-29T01:34:10;101299.69;;;10.29;84.50
4576;BME280;2300;51.874;8.430;2023-05-29T01:36:36;101338.91;;;10.56;84.11
4576;BME280;2300;51.874;8.430;2023-05-29T01:39:03;101332.94;;;10.59;84.37
4576;BME280;2300;51.874;8.430;2023-05-29T01:41:31;101342.22;;;10.64;84.21
4576;BME280;2300;51.874;8.430;2023-05-29T01:44:00;101335.72;;;10.52;84.39
4576;BME280;2300;51.874;8.430;2023-05-29T01:46:28;101317.38;;;10.46;83.49
4576;BME280;2300;51.874;8.430;2023-05-29T01:48:55;101306.63;;;10.31;84.47
4576;BME280;2300;51.874;8.430;2023-05-29T01:51:21;101344.81;;;10.53;84.33
4576;BME280;2300;51.874;8.430;2023-05-29T01:53:48;101334.91;;;10.52;84.01
4576;BME280;2300;51.874;8.430;2023-05-29T01:56:15;101329.44;;;10.45;83.75
4576;BME280;2300;51.874;8.430;2023-05-29T01:58:42;101348.81;;;10.57;83.34
4576;BME280;2300;51.874;8.430;2023-05-29T02:01:11;101353.69;;;10.55;83.71
4576;BME280;2300;51.874;8.430;2023-05-29T02:03:37;101352.38;;;10.57;82.87
4576;BME280;2300;51.874;8.430;2023-05-29T02:06:04;101354.31;;;10.57;82.31
4576;BME280;2300;51.874;8.430;2023-05-29T02:08:31;101354.72;;;10.54;82.54
4576;BME280;2300;51.874;8.430;2023-05-29T02:10:58;101356.22;;;10.50;82.08
4576;BME280;2300;51.874;8.430;2023-05-29T02:13:25;101357.88;;;10.64;81.87
4576;BME280;2300;51.874;8.430;2023-05-29T02:15:51;101360.63;;;10.64;82.09
4576;BME280;2300;51.874;8.430;2023-05-29T02:18:19;101353.22;;;10.58;81.38
4576;BME280;2300;51.874;8.430;2023-05-29T02:20:45;101364.22;;;10.58;81.45
4576;BME280;2300;51.874;8.430;2023-05-29T02:23:12;101361.78;;;10.30;82.16
4576;BME280;2300;51.874;8.430;2023-05-29T02:25:40;101340.22;;;10.27;82.10
4576;BME280;2300;51.874;8.430;2023-05-29T02:28:07;101371.66;;;10.51;81.80
4576;BME280;2300;51.874;8.430;2023-05-29T02:30:34;101359.00;;;10.36;82.35
4576;BME280;2300;51.874;8.430;2023-05-29T02:33:01;101347.81;;;10.31;82.28
4576;BME280;2300;51.874;8.430;2023-05-29T02:35:28;101366.41;;;10.36;81.71
4576;BME280;2300;51.874;8.430;2023-05-29T02:37:55;101296.78;;;9.91;82.23
4576;BME280;2300;51.874;8.430;2023-05-29T02:40:21;101368.53;;;10.21;81.90
4576;BME280;2300;51.874;8.430;2023-05-29T02:42:48;101378.25;;;10.23;82.56
4576;BME280;2300;51.874;8.430;2023-05-29T02:45:14;101393.88;;;10.29;82.64
4576;BME280;2300;51.874;8.430;2023-05-29T02:47:41;101381.81;;;10.17;82.74
4576;BME280;2300;51.874;8.430;2023-05-29T02:50:08;101390.50;;;10.21;82.21
4576;BME280;2300;51.874;8.430;2023-05-29T02:52:36;101386.25;;;10.18;82.76
4576;BME280;2300;51.874;8.430;2023-05-29T02:55:03;101386.06;;;10.26;81.97
4576;BME280;2300;51.874;8.430;2023-05-29T02:57:30;101382.03;;;10.22;81.79
4576;BME280;2300;51.874;8.430;2023-05-29T02:59:57;101373.59;;;10.17;81.93
4576;BME280;2300;51.874;8.430;2023-05-29T03:02:25;101386.69;;;10.15;82.11
4576;BME280;2300;51.874;8.430;2023-05-29T03:04:51;101374.03;;;10.14;82.24
4576;BME280;2300;51.874;8.430;2023-05-29T03:07:19;101375.28;;;10.18;82.56
4576;BME280;2300;51.874;8.430;2023-05-29T03:09:46;101372.97;;;10.15;82.15
4576;BME280;2300;51.874;8.430;2023-05-29T03:12:13;101379.06;;;10.17;82.14
4576;BME280;2300;51.874;8.430;2023-05-29T03:14:39;101346.19;;;9.84;82.45
4576;BME280;2300;51.874;8.430;2023-05-29T03:17:06;101376.78;;;10.14;82.82
4576;BME280;2300;51.874;8.430;2023-05-29T03:19:33;101373.63;;;10.04;82.70
4576;BME280;2300;51.874;8.430;2023-05-29T03:21:59;101377.84;;;10.00;83.01
4576;BME280;2300;51.874;8.430;2023-05-29T03:24:26;101379.94;;;9.85;83.59
4576;BME280;2300;51.874;8.430;2023-05-29T03:26:55;101378.25;;;9.97;83.96
4576;BME280;2300;51.874;8.430;2023-05-29T03:29:22;101377.41;;;9.90;84.00
4576;BME280;2300;51.874;8.430;2023-05-29T03:31:48;101381.44;;;9.94;84.06
4576;BME280;2300;51.874;8.430;2023-05-29T03:34:15;101392.59;;;10.06;83.99
4576;BME280;2300;51.874;8.430;2023-05-29T03:36:41;101379.09;;;9.97;83.48
4576;BME280;2300;51.874;8.430;2023-05-29T03:39:08;101372.56;;;9.92;83.73
4576;BME280;2300;51.874;8.430;2023-05-29T03:41:34;101368.13;;;9.71;84.52
4576;BME280;2300;51.874;8.430;2023-05-29T03:44:02;101391.34;;;9.95;85.19
4576;BME280;2300;51.874;8.430;2023-05-29T03:46:29;101397.69;;;9.89;84.71
4576;BME280;2300;51.874;8.430;2023-05-29T03:48:56;101399.56;;;9.82;85.77
4576;BME280;2300;51.874;8.430;2023-05-29T03:51:22;101400.63;;;9.94;84.97
4576;BME280;2300;51.874;8.430;2023-05-29T03:53:49;101399.34;;;9.96;84.96
4576;BME280;2300;51.874;8.430;2023-05-29T03:56:16;101395.13;;;10.00;84.80
4576;BME280;2300;51.874;8.430;2023-05-29T03:58:42;101405.69;;;10.04;84.76
4576;BME280;2300;51.874;8.430;2023-05-29T04:01:10;101405.06;;;9.88;85.71
4576;BME280;2300;51.874;8.430;2023-05-29T04:03:36;101417.91;;;10.01;85.17
4576;BME280;2300;51.874;8.430;2023-05-29T04:06:03;101416.25;;;10.13;84.77
4576;BME280;2300;51.874;8.430;2023-05-29T04:08:30;101422.16;;;9.97;84.92
4576;BME280;2300;51.874;8.430;2023-05-29T04:10:57;101425.75;;;10.04;85.63
4576;BME280;2300;51.874;8.430;2023-05-29T04:13:23;101425.09;;;10.22;85.09
4576;BME280;2300;51.874;8.430;2023-05-29T04:15:50;101415.59;;;10.11;84.83
4576;BME280;2300;51.874;8.430;2023-05-29T04:18:19;101376.78;;;9.88;85.03
4576;BME280;2300;51.874;8.430;2023-05-29T04:20:46;101424.06;;;10.23;85.24
4576;BME280;2300;51.874;8.430;2023-05-29T04:23:13;101431.03;;;10.38;84.47
4576;BME280;2300;51.874;8.430;2023-05-29T04:25:39;101439.03;;;10.53;84.38
4576;BME280;2300;51.874;8.430;2023-05-29T04:28:06;101428.47;;;10.43;83.59
4576;BME280;2300;51.874;8.430;2023-05-29T04:30:32;101439.66;;;10.49;83.48
4576;BME280;2300;51.874;8.430;2023-05-29T04:32:59;101449.81;;;10.55;83.67
4576;BME280;2300;51.874;8.430;2023-05-29T04:35:27;101441.16;;;10.12;84.17
4576;BME280;2300;51.874;8.430;2023-05-29T04:37:54;101434.63;;;10.32;83.96
4576;BME280;2300;51.874;8.430;2023-05-29T04:40:23;101455.69;;;10.65;83.55
4576;BME280;2300;51.874;8.430;2023-05-29T04:42:49;101457.50;;;11.04;82.66
4576;BME280;2300;51.874;8.430;2023-05-29T04:45:16;101450.56;;;11.39;80.65
4576;BME280;2300;51.874;8.430;2023-05-29T04:47:45;101457.84;;;11.65;79.84
4576;BME280;2300;51.874;8.430;2023-05-29T04:50:12;101460.81;;;12.20;78.11
4576;BME280;2300;51.874;8.430;2023-05-29T04:52:40;101454.41;;;12.01;77.60
4576;BME280;2300;51.874;8.430;2023-05-29T04:55:09;101465.63;;;12.24;77.30
4576;BME280;2300;51.874;8.430;2023-05-29T04:57:36;101461.72;;;12.38;76.48
4576;BME280;2300;51.874;8.430;2023-05-29T05:00:03;101465.81;;;12.72;76.54
4576;BME280;2300;51.874;8.430;2023-05-29T05:02:32;101473.69;;;12.93;74.65
4576;BME280;2300;51.874;8.430;2023-05-29T05:04:58;101468.44;;;13.22;73.70
4576;BME280;2300;51.874;8.430;2023-05-29T05:07:25;101467.94;;;12.95;73.32
4576;BME280;2300;51.874;8.430;2023-05-29T05:09:53;101469.06;;;13.24;72.44
4576;BME280;2300;51.874;8.430;2023-05-29T05:12:19;101472.59;;;13.31;72.66
4576;BME280;2300;51.874;8.430;2023-05-29T05:14:46;101449.81;;;13.35;71.38
4576;BME280;2300;51.874;8.430;2023-05-29T05:17:12;101468.34;;;13.76;72.07
4576;BME280;2300;51.874;8.430;2023-05-29T05:19:39;101472.41;;;14.04;71.05
4576;BME280;2300;51.874;8.430;2023-05-29T05:22:06;101469.06;;;14.25;69.91
4576;BME280;2300;51.874;8.430;2023-05-29T05:24:32;101469.34;;;14.82;68.16
4576;BME280;2300;51.874;8.430;2023-05-29T05:27:01;101472.75;;;15.35;66.90
4576;BME280;2300;51.874;8.430;2023-05-29T05:29:28;101454.13;;;16.71;63.48
4576;BME280;2300;51.874;8.430;2023-05-29T05:31:54;101471.31;;;18.03;59.88
4576;BME280;2300;51.874;8.430;2023-05-29T05:34:21;101469.63;;;18.66;58.31
4576;BME280;2300;51.874;8.430;2023-05-29T05:36:48;101476.91;;;19.92;56.59
4576;BME280;2300;51.874;8.430;2023-05-29T05:39:15;101474.72;;;20.34;54.12
4576;BME280;2300;51.874;8.430;2023-05-29T05:41:41;101470.19;;;20.94;53.28
4576;BME280;2300;51.874;8.430;2023-05-29T05:44:09;101475.28;;;20.41;53.65
4576;BME280;2300;51.874;8.430;2023-05-29T05:46:35;101475.25;;;20.01;55.12
4576;BME280;2300;51.874;8.430;2023-05-29T05:49:02;101473.97;;;19.46;54.49
4576;BME280;2300;51.874;8.430;2023-05-29T05:51:28;101476.91;;;19.92;54.58
4576;BME280;2300;51.874;8.430;2023-05-29T05:53:56;101478.91;;;20.47;54.48
4576;BME280;2300;51.874;8.430;2023-05-29T05:56:22;101486.06;;;21.24;52.35
4576;BME280;2300;51.874;8.430;2023-05-29T05:58:50;101474.88;;;21.29;52.27
4576;BME280;2300;51.874;8.430;2023-05-29T06:01:18;101475.00;;;21.63;49.88
4576;BME280;2300;51.874;8.430;2023-05-29T06:03:45;101471.84;;;21.00;51.25
4576;BME280;2300;51.874;8.430;2023-05-29T06:06:11;101486.13;;;20.12;53.24
4576;BME280;2300;51.874;8.430;2023-05-29T06:08:38;101488.25;;;19.08;55.50
4576;BME280;2300;51.874;8.430;2023-05-29T06:11:06;101476.75;;;18.20;56.48
4576;BME280;2300;51.874;8.430;2023-05-29T06:13:33;101488.38;;;18.44;57.28
4576;BME280;2300;51.874;8.430;2023-05-29T06:16:02;101488.91;;;19.25;55.32
4576;BME280;2300;51.874;8.430;2023-05-29T06:18:30;101487.88;;;19.41;54.31
4576;BME280;2300;51.874;8.430;2023-05-29T06:20:56;101492.84;;;20.82;53.79
4576;BME280;2300;51.874;8.430;2023-05-29T06:23:23;101477.59;;;21.98;50.55
4576;BME280;2300;51.874;8.430;2023-05-29T06:25:49;101483.81;;;21.85;49.95
4576;BME280;2300;51.874;8.430;2023-05-29T06:28:16;101478.94;;;21.52;49.91
4576;BME280;2300;51.874;8.430;2023-05-29T06:30:42;101470.16;;;21.09;52.66
4576;BME280;2300;51.874;8.430;2023-05-29T06:33:09;101478.69;;;22.70;49.14
4576;BME280;2300;51.874;8.430;2023-05-29T06:35:37;101471.66;;;21.61;49.30
4576;BME280;2300;51.874;8.430;2023-05-29T06:38:05;101483.09;;;20.24;51.93
4576;BME280;2300;51.874;8.430;2023-05-29T06:40:31;101485.91;;;20.49;53.52
4576;BME280;2300;51.874;8.430;2023-05-29T06:42:57;101470.22;;;20.89;53.00
4576;BME280;2300;51.874;8.430;2023-05-29T06:45:24;101490.25;;;21.21;51.91
4576;BME280;2300;51.874;8.430;2023-05-29T06:47:50;101485.31;;;20.37;52.31
4576;BME280;2300;51.874;8.430;2023-05-29T06:50:17;101489.94;;;19.09;55.56
4576;BME280;2300;51.874;8.430;2023-05-29T06:52:45;101492.81;;;19.24;56.04
4576;BME280;2300;51.874;8.430;2023-05-29T06:55:11;101491.34;;;19.06;56.24
4576;BME280;2300;51.874;8.430;2023-05-29T06:57:38;101485.25;;;18.72;56.25
4576;BME280;2300;51.874;8.430;2023-05-29T07:00:05;101504.81;;;18.51;56.86
4576;BME280;2300;51.874;8.430;2023-05-29T07:02:34;101502.16;;;18.29;57.85
4576;BME280;2300;51.874;8.430;2023-05-29T07:05:00;101510.16;;;18.57;57.10
4576;BME280;2300;51.874;8.430;2023-05-29T07:07:27;101501.59;;;18.00;57.06
4576;BME280;2300;51.874;8.430;2023-05-29T07:09:54;101506.72;;;17.65;59.06
4576;BME280;2300;51.874;8.430;2023-05-29T07:12:21;101510.59;;;16.65;60.79
4576;BME280;2300;51.874;8.430;2023-05-29T07:14:48;101503.56;;;16.41;60.88
4576;BME280;2300;51.874;8.430;2023-05-29T07:17:15;101520.59;;;16.66;61.62
4576;BME280;2300;51.874;8.430;2023-05-29T07:19:41;101501.06;;;16.94;61.47
4576;BME280;2300;51.874;8.430;2023-05-29T07:22:08;101518.34;;;17.01;60.59
4576;BME280;2300;51.874;8.430;2023-05-29T07:24:35;101533.13;;;16.52;61.76
4576;BME280;2300;51.874;8.430;2023-05-29T07:27:03;101524.44;;;16.65;62.04
4576;BME280;2300;51.874;8.430;2023-05-29T07:29:30;101522.00;;;16.85;61.45
4576;BME280;2300;51.874;8.430;2023-05-29T07:31:56;101517.88;;;17.26;60.02
4576;BME280;2300;51.874;8.430;2023-05-29T07:34:23;101522.50;;;16.99;60.50
4576;BME280;2300;51.874;8.430;2023-05-29T07:36:57;101523.28;;;16.44;60.51
4576;BME280;2300;51.874;8.430;2023-05-29T07:39:25;101518.75;;;16.71;61.33
4576;BME280;2300;51.874;8.430;2023-05-29T07:41:51;101522.13;;;16.57;62.27
4576;BME280;2300;51.874;8.430;2023-05-29T07:44:19;101523.59;;;17.14;59.73
4576;BME280;2300;51.874;8.430;2023-05-29T07:46:46;101524.59;;;16.75;60.54
4576;BME280;2300;51.874;8.430;2023-05-29T07:49:13;101529.91;;;17.10;61.05
4576;BME280;2300;51.874;8.430;2023-05-29T07:51:39;101536.56;;;17.31;59.30
4576;BME280;2300;51.874;8.430;2023-05-29T07:54:05;101539.00;;;17.27;59.83
4576;BME280;2300;51.874;8.430;2023-05-29T07:56:32;101527.88;;;17.92;58.46
4576;BME280;2300;51.874;8.430;2023-05-29T07:58:59;101529.81;;;17.92;58.07
4576;BME280;2300;51.874;8.430;2023-05-29T08:01:27;101535.03;;;17.88;58.60
4576;BME280;2300;51.874;8.430;2023-05-29T08:03:54;101541.50;;;17.94;57.86
4576;BME280;2300;51.874;8.430;2023-05-29T08:06:20;101532.84;;;17.90;59.42
4576;BME280;2300;51.874;8.430;2023-05-29T08:08:47;101535.03;;;17.62;57.13
4576;BME280;2300;51.874;8.430;2023-05-29T08:11:14;101533.13;;;17.67;59.26
4576;BME280;2300;51.874;8.430;2023-05-29T08:13:40;101537.34;;;18.18;61.04
4576;BME280;2300;51.874;8.430;2023-05-29T08:16:07;101533.34;;;18.36;56.47
4576;BME280;2300;51.874;8.430;2023-05-29T08:18:34;101508.84;;;18.33;56.85
4576;BME280;2300;51.874;8.430;2023-05-29T08:21:01;101528.28;;;18.28;56.56
4576;BME280;2300;51.874;8.430;2023-05-29T08:23:28;101528.72;;;18.20;57.91
4576;BME280;2300;51.874;8.430;2023-05-29T08:25:56;101532.25;;;18.10;57.78
4576;BME280;2300;51.874;8.430;2023-05-29T08:28:23;101511.34;;;18.34;57.65
4576;BME280;2300;51.874;8.430;2023-05-29T08:30:51;101517.22;;;17.84;57.04
4576;BME280;2300;51.874;8.430;2023-05-29T08:33:18;101527.88;;;17.92;58.43
4576;BME280;2300;51.874;8.430;2023-05-29T08:35:45;101521.09;;;17.83;57.30
4576;BME280;2300;51.874;8.430;2023-05-29T08:38:12;101526.34;;;18.01;57.84
4576;BME280;2300;51.874;8.430;2023-05-29T08:40:39;101518.75;;;18.19;57.53
4576;BME280;2300;51.874;8.430;2023-05-29T08:43:10;101509.72;;;17.85;56.08
4576;BME280;2300;51.874;8.430;2023-05-29T08:45:42;101496.84;;;17.52;57.97
4576;BME280;2300;51.874;8.430;2023-05-29T08:48:09;101501.78;;;17.45;59.25
4576;BME280;2300;51.874;8.430;2023-05-29T08:50:37;101545.41;;;18.20;58.98
4576;BME280;2300;51.874;8.430;2023-05-29T08:53:11;101515.34;;;17.90;57.57
4576;BME280;2300;51.874;8.430;2023-05-29T08:55:37;101533.00;;;18.00;57.20
4576;BME280;2300;51.874;8.430;2023-05-29T08:58:04;101536.97;;;17.61;57.06
4576;BME280;2300;51.874;8.430;2023-05-29T09:00:31;101549.28;;;17.70;57.47
4576;BME280;2300;51.874;8.430;2023-05-29T09:02:58;101544.31;;;17.72;57.07
4576;BME280;2300;51.874;8.430;2023-05-29T09:05:26;101536.19;;;17.44;57.69
4576;BME280;2300;51.874;8.430;2023-05-29T09:07:52;101538.75;;;18.21;59.19
4576;BME280;2300;51.874;8.430;2023-05-29T09:10:20;101544.69;;;18.61;55.75
4576;BME280;2300;51.874;8.430;2023-05-29T09:12:48;101545.00;;;18.33;55.71
4576;BME280;2300;51.874;8.430;2023-05-29T09:15:19;101535.50;;;17.80;57.23
4576;BME280;2300;51.874;8.430;2023-05-29T09:17:49;101536.84;;;17.78;57.73
4576;BME280;2300;51.874;8.430;2023-05-29T09:20:17;101546.22;;;17.93;58.08
4576;BME280;2300;51.874;8.430;2023-05-29T09:22:53;101537.06;;;17.93;58.45
4576;BME280;2300;51.874;8.430;2023-05-29T09:25:25;101537.75;;;17.83;57.91
4576;BME280;2300;51.874;8.430;2023-05-29T09:27:54;101546.31;;;18.57;58.96
4576;BME280;2300;51.874;8.430;2023-05-29T09:30:33;101555.63;;;18.41;56.95
4576;BME280;2300;51.874;8.430;2023-05-29T09:33:01;101554.97;;;18.61;59.28
4576;BME280;2300;51.874;8.430;2023-05-29T09:35:32;101568.09;;;18.65;56.67
4576;BME280;2300;51.874;8.430;2023-05-29T09:37:59;101557.53;;;18.67;56.92
4576;BME280;2300;51.874;8.430;2023-05-29T09:40:29;101561.34;;;18.88;56.57
4576;BME280;2300;51.874;8.430;2023-05-29T09:43:02;101560.00;;;18.64;56.19
4576;BME280;2300;51.874;8.430;2023-05-29T09:45:30;101549.41;;;18.61;56.71
4576;BME280;2300;51.874;8.430;2023-05-29T09:47:56;101550.03;;;18.68;57.32
4576;BME280;2300;51.874;8.430;2023-05-29T09:50:25;101532.16;;;18.91;56.85
4576;BME280;2300;51.874;8.430;2023-05-29T09:52:52;101543.84;;;18.93;56.13
4576;BME280;2300;51.874;8.430;2023-05-29T09:55:20;101544.78;;;18.76;56.40
4576;BME280;2300;51.874;8.430;2023-05-29T09:57:48;101543.84;;;18.61;55.76
4576;BME280;2300;51.874;8.430;2023-05-29T10:00:15;101543.75;;;18.51;55.83
4576;BME280;2300;51.874;8.430;2023-05-29T10:02:43;101540.78;;;18.62;55.63
4576;BME280;2300;51.874;8.430;2023-05-29T10:05:10;101545.09;;;18.75;56.41
4576;BME280;2300;51.874;8.430;2023-05-29T10:07:43;101529.22;;;18.75;55.56
4576;BME280;2300;51.874;8.430;2023-05-29T10:10:12;101537.41;;;17.96;57.81
4576;BME280;2300;51.874;8.430;2023-05-29T10:12:46;101525.84;;;18.36;57.49
4576;BME280;2300;51.874;8.430;2023-05-29T10:15:16;101534.94;;;18.91;57.87
4576;BME280;2300;51.874;8.430;2023-05-29T10:17:49;101536.97;;;19.57;60.14
4576;BME280;2300;51.874;8.430;2023-05-29T10:20:17;101536.28;;;19.30;55.23
4576;BME280;2300;51.874;8.430;2023-05-29T10:22:50;101531.31;;;19.37;55.50
4576;BME280;2300;51.874;8.430;2023-05-29T10:25:18;101542.41;;;19.27;55.82
4576;BME280;2300;51.874;8.430;2023-05-29T10:27:46;101537.56;;;18.75;55.17
4576;BME280;2300;51.874;8.430;2023-05-29T10:30:24;101538.34;;;18.71;57.49
4576;BME280;2300;51.874;8.430;2023-05-29T10:33:08;101543.81;;;18.88;57.24
4576;BME280;2300;51.874;8.430;2023-05-29T10:35:42;101541.19;;;19.13;55.25
4576;BME280;2300;51.874;8.430;2023-05-29T10:38:12;101533.44;;;19.20;57.63
4576;BME280;2300;51.874;8.430;2023-05-29T10:40:40;101536.53;;;19.28;56.07
4576;BME280;2300;51.874;8.430;2023-05-29T10:43:06;101540.84;;;19.51;58.45
4576;BME280;2300;51.874;8.430;2023-05-29T10:45:50;101529.88;;;19.92;55.88
4576;BME280;2300;51.874;8.430;2023-05-29T10:48:37;101532.91;;;19.85;52.96
4576;BME280;2300;51.874;8.430;2023-05-29T10:51:05;101536.91;;;19.42;55.12
4576;BME280;2300;51.874;8.430;2023-05-29T10:53:32;101527.94;;;19.35;54.64
4576;BME280;2300;51.874;8.430;2023-05-29T10:55:59;101523.56;;;19.54;56.09
4576;BME280;2300;51.874;8.430;2023-05-29T10:58:30;101526.84;;;19.36;54.30
4576;BME280;2300;51.874;8.430;2023-05-29T11:00:58;101534.72;;;19.54;54.66
4576;BME280;2300;51.874;8.430;2023-05-29T11:03:25;101526.81;;;19.31;54.20
4576;BME280;2300;51.874;8.430;2023-05-29T11:05:56;101513.06;;;19.09;55.40
4576;BME280;2300;51.874;8.430;2023-05-29T11:08:28;101520.78;;;19.54;56.52
4576;BME280;2300;51.874;8.430;2023-05-29T11:10:56;101522.03;;;19.79;54.23
4576;BME280;2300;51.874;8.430;2023-05-29T11:13:24;101503.59;;;19.67;55.40
4576;BME280;2300;51.874;8.430;2023-05-29T11:16:13;101511.50;;;20.06;55.49
4576;BME280;2300;51.874;8.430;2023-05-29T11:18:43;101518.75;;;20.22;54.33
4576;BME280;2300;51.874;8.430;2023-05-29T11:21:30;101517.88;;;19.96;53.46
4576;BME280;2300;51.874;8.430;2023-05-29T11:23:59;101514.25;;;20.01;55.02
4576;BME280;2300;51.874;8.430;2023-05-29T11:26:29;101500.03;;;19.87;55.32
4576;BME280;2300;51.874;8.430;2023-05-29T11:28:57;101479.19;;;20.05;55.57
4576;BME280;2300;51.874;8.430;2023-05-29T11:31:27;101510.44;;;20.63;56.16
4576;BME280;2300;51.874;8.430;2023-05-29T11:33:58;101506.50;;;20.79;56.52
4576;BME280;2300;51.874;8.430;2023-05-29T11:36:25;101504.28;;;20.76;53.03
4576;BME280;2300;51.874;8.430;2023-05-29T11:38:52;101512.91;;;20.89;53.37
4576;BME280;2300;51.874;8.430;2023-05-29T11:41:19;101501.75;;;20.84;53.69
4576;BME280;2300;51.874;8.430;2023-05-29T11:43:56;101505.41;;;20.70;53.19
4576;BME280;2300;51.874;8.430;2023-05-29T11:46:22;101492.28;;;20.35;52.62
4576;BME280;2300;51.874;8.430;2023-05-29T11:48:52;101498.13;;;20.38;55.04
4576;BME280;2300;51.874;8.430;2023-05-29T11:51:19;101496.19;;;20.74;55.19
4576;BME280;2300;51.874;8.430;2023-05-29T11:53:47;101484.19;;;20.84;57.01
4576;BME280;2300;51.874;8.430;2023-05-29T11:56:15;101493.88;;;21.27;53.63
4576;BME280;2300;51.874;8.430;2023-05-29T11:58:42;101496.13;;;21.05;54.28
4576;BME280;2300;51.874;8.430;2023-05-29T12:01:09;101487.56;;;20.66;53.44
4576;BME280;2300;51.874;8.430;2023-05-29T12:03:39;101505.97;;;20.82;53.48
4576;BME280;2300;51.874;8.430;2023-05-29T12:06:08;101494.25;;;20.29;54.64
4576;BME280;2300;51.874;8.430;2023-05-29T12:08:36;101483.09;;;20.39;53.40
4576;BME280;2300;51.874;8.430;2023-05-29T12:11:03;101491.97;;;19.96;53.50
4576;BME280;2300;51.874;8.430;2023-05-29T12:13:30;101494.84;;;20.46;56.90
4576;BME280;2300;51.874;8.430;2023-05-29T12:15:57;101500.41;;;20.72;54.33
4576;BME280;2300;51.874;8.430;2023-05-29T12:18:26;101488.56;;;21.10;53.75
4576;BME280;2300;51.874;8.430;2023-05-29T12:20:57;101482.19;;;20.94;54.03
4576;BME280;2300;51.874;8.430;2023-05-29T12:23:26;101485.63;;;20.61;53.48
4576;BME280;2300;51.874;8.430;2023-05-29T12:25:54;101495.06;;;20.90;53.34
4576;BME280;2300;51.874;8.430;2023-05-29T12:28:20;101489.69;;;21.14;53.98
4576;BME280;2300;51.874;8.430;2023-05-29T12:30:47;101496.56;;;21.47;53.44
4576;BME280;2300;51.874;8.430;2023-05-29T12:33:27;101484.66;;;21.26;51.87
4576;BME280;2300;51.874;8.430;2023-05-29T12:35:54;101485.63;;;21.56;52.59
4576;BME280;2300;51.874;8.430;2023-05-29T12:38:22;101481.59;;;21.13;52.73
4576;BME280;2300;51.874;8.430;2023-05-29T12:40:50;101478.53;;;21.24;53.58
4576;BME280;2300;51.874;8.430;2023-05-29T12:43:17;101485.75;;;21.30;54.41
4576;BME280;2300;51.874;8.430;2023-05-29T12:45:43;101482.47;;;21.08;52.68
4576;BME280;2300;51.874;8.430;2023-05-29T12:48:10;101482.47;;;21.08;52.86
4576;BME280;2300;51.874;8.430;2023-05-29T12:50:38;101476.81;;;21.33;53.68
4576;BME280;2300;51.874;8.430;2023-05-29T12:53:05;101478.72;;;21.43;53.18
4576;BME280;2300;51.874;8.430;2023-05-29T12:55:35;101473.88;;;21.64;53.65
4576;BME280;2300;51.874;8.430;2023-05-29T12:58:05;101471.72;;;21.41;52.86
4576;BME280;2300;51.874;8.430;2023-05-29T13:00:33;101473.94;;;21.49;53.46
4576;BME280;2300;51.874;8.430;2023-05-29T13:03:00;101466.19;;;21.20;52.58
4576;BME280;2300;51.874;8.430;2023-05-29T13:05:27;101475.66;;;21.45;53.67
4576;BME280;2300;51.874;8.430;2023-05-29T13:07:54;101476.75;;;21.49;51.81
4576;BME280;2300;51.874;8.430;2023-05-29T13:10:21;101469.78;;;21.41;52.90
4576;BME280;2300;51.874;8.430;2023-05-29T13:12:48;101474.81;;;21.44;53.54
4576;BME280;2300;51.874;8.430;2023-05-29T13:15:21;101472.00;;;21.49;51.63
4576;BME280;2300;51.874;8.430;2023-05-29T13:17:48;101473.41;;;21.42;52.46